Dht Chris — V7DA6 — position and weather

sailwx.info

Track history (hours):
 
Tides and Currents Weather Stations Pressure Air Temp Water Temp Dewpoint Dewpoint Depression Visibility Wind Speed Wind Dir Waves Ship Positions

Dht Chris

Last reported at 2018-Jan-21 23:13 UTC. Time now 2018-Jan-22 04:15 UTC.
Position N 37°14' E 015°46'.

Length 334 m; draft 11 m.

Type: Tanker. MMSI: 538001594.

Date/timePositionNaut miles runAvg speedWind from/ knotsBaromVisibWave heightAir tempDewpointWater temp
2018-Jan-21 23:13N 37°14' E 015°46'8 0.2
2018-Jan-20 11:19N 37°10' E 015°36'1 0.6
2018-Jan-20 10:23N 37°10' E 015°36'5 0.4
2018-Jan-19 21:26N 37°11' E 015°29'1 0.1
2018-Jan-19 15:37N 37°12' E 015°29'9 4.1
2018-Jan-19 13:33N 37°19' E 015°36'1 0.5
2018-Jan-19 12:08N 37°18' E 015°35'0 0.5
2018-Jan-19 11:49N 37°18' E 015°35'0 0.5
2018-Jan-19 11:25N 37°18' E 015°34'1 0.5
2018-Jan-19 09:21N 37°18' E 015°33'8 2.2
2018-Jan-19 05:55N 37°17' E 015°43'3 0.4
2018-Jan-18 23:04N 37°19' E 015°46'1 0.8
2018-Jan-18 21:31N 37°18' E 015°44'0 0.8
2018-Jan-18 21:30N 37°18' E 015°44'1 0.8
2018-Jan-18 20:49N 37°18' E 015°44'0 0.9
2018-Jan-18 20:30N 37°18' E 015°43'1 1.1
2018-Jan-18 19:55N 37°18' E 015°42'2 0.3
2018-Jan-18 11:04N 37°16' E 015°43'112.2
2018-Jan-18 10:59N 37°16' E 015°44'5 0.9
2018-Jan-18 04:39N 37°11' E 015°48'1 1.6
2018-Jan-18 04:15N 37°11' E 015°47'0 1.7
2018-Jan-18 04:00N 37°11' E 015°47'1 1.7
2018-Jan-18 03:30N 37°11' E 015°46'  
2018-Jan-12 05:15N 37°12' E 015°35'8 7.8
2018-Jan-12 04:10N 37°11' E 015°46'3 4.0
2018-Jan-12 03:21N 37°14' E 015°48'1 1.2
2018-Jan-12 02:35N 37°13' E 015°47'1 1.3
2018-Jan-12 02:08N 37°13' E 015°46'0 1.3
2018-Jan-12 01:53N 37°13' E 015°46'1 1.3
2018-Jan-12 01:21N 37°12' E 015°45'  
Track history (hours):
 
Tides and Currents Weather Stations Pressure Air Temp Water Temp Dewpoint Dewpoint Depression Visibility Wind Speed Wind Dir Waves Ship Positions

Dht Chris

Last reported at 2018-Jan-21 23:13 UTC. Time now 2018-Jan-22 04:15 UTC.
Position N 37°14' E 015°46'.

Length 334 m; draft 11 m.

Type: Tanker. MMSI: 538001594.

Date/timePositionNaut miles runAvg speedWind from/ knotsBaromVisibWave heightAir tempDewpointWater temp
2018-Jan-21 23:13N 37°14' E 015°46'8 0.2
2018-Jan-20 11:19N 37°10' E 015°36'1 0.6
2018-Jan-20 10:23N 37°10' E 015°36'5 0.4
2018-Jan-19 21:26N 37°11' E 015°29'1 0.1
2018-Jan-19 15:37N 37°12' E 015°29'9 4.1
2018-Jan-19 13:33N 37°19' E 015°36'1 0.5
2018-Jan-19 12:08N 37°18' E 015°35'0 0.5
2018-Jan-19 11:49N 37°18' E 015°35'0 0.5
2018-Jan-19 11:25N 37°18' E 015°34'1 0.5
2018-Jan-19 09:21N 37°18' E 015°33'8 2.2
2018-Jan-19 05:55N 37°17' E 015°43'3 0.4
2018-Jan-18 23:04N 37°19' E 015°46'1 0.8
2018-Jan-18 21:31N 37°18' E 015°44'0 0.8
2018-Jan-18 21:30N 37°18' E 015°44'1 0.8
2018-Jan-18 20:49N 37°18' E 015°44'0 0.9
2018-Jan-18 20:30N 37°18' E 015°43'1 1.1
2018-Jan-18 19:55N 37°18' E 015°42'2 0.3
2018-Jan-18 11:04N 37°16' E 015°43'112.2
2018-Jan-18 10:59N 37°16' E 015°44'5 0.9
2018-Jan-18 04:39N 37°11' E 015°48'1 1.6
2018-Jan-18 04:15N 37°11' E 015°47'0 1.7
2018-Jan-18 04:00N 37°11' E 015°47'1 1.7
2018-Jan-18 03:30N 37°11' E 015°46'  
2018-Jan-12 05:15N 37°12' E 015°35'8 7.8
2018-Jan-12 04:10N 37°11' E 015°46'3 4.0
2018-Jan-12 03:21N 37°14' E 015°48'1 1.2
2018-Jan-12 02:35N 37°13' E 015°47'1 1.3
2018-Jan-12 02:08N 37°13' E 015°46'0 1.3
2018-Jan-12 01:53N 37°13' E 015°46'1 1.3
2018-Jan-12 01:21N 37°12' E 015°45'  

Dump ship's entire track history